createdAt,value
2019-03-04T00:01:24.300Z,21.87
2019-03-04T00:06:28.461Z,21.79
2019-03-04T00:11:32.602Z,21.76
2019-03-04T00:16:36.815Z,21.70
2019-03-04T00:21:41.017Z,21.70
2019-03-04T00:26:45.178Z,21.55
2019-03-04T00:31:49.257Z,21.53
2019-03-04T00:36:53.509Z,21.49
2019-03-04T00:41:57.736Z,21.48
2019-03-04T00:47:01.834Z,21.49
2019-03-04T00:52:06.036Z,21.45
2019-03-04T00:57:10.174Z,21.46
2019-03-04T01:02:14.331Z,21.37
2019-03-04T01:07:18.582Z,21.42
2019-03-04T01:12:22.776Z,21.32
2019-03-04T01:17:26.891Z,21.37
2019-03-04T01:22:31.091Z,21.37
2019-03-04T01:27:35.292Z,21.42
2019-03-04T01:32:39.683Z,21.43
2019-03-04T01:37:43.988Z,21.36
2019-03-04T01:42:48.245Z,21.46
2019-03-04T01:47:52.436Z,21.50
2019-03-04T01:52:56.661Z,21.57
2019-03-04T01:58:00.935Z,21.58
2019-03-04T02:03:05.376Z,21.63
2019-03-04T02:08:09.575Z,21.61
2019-03-04T02:13:13.824Z,21.67
2019-03-04T02:18:17.988Z,21.67
2019-03-04T02:23:22.174Z,21.62
2019-03-04T02:28:26.389Z,21.62
2019-03-04T02:33:30.601Z,21.73
2019-03-04T02:38:34.812Z,21.76
2019-03-04T02:43:38.977Z,21.76
2019-03-04T02:48:43.043Z,21.75
2019-03-04T02:53:47.138Z,21.65
2019-03-04T02:58:51.171Z,21.72
2019-03-04T03:03:55.249Z,21.72
2019-03-04T03:08:59.308Z,21.62
2019-03-04T03:14:03.460Z,21.56
2019-03-04T03:19:07.522Z,21.54
2019-03-04T03:24:11.542Z,21.42
2019-03-04T03:29:15.750Z,21.48
2019-03-04T03:34:19.901Z,21.48
2019-03-04T03:39:24.034Z,21.42
2019-03-04T03:44:28.079Z,21.41
2019-03-04T03:49:32.133Z,21.38
2019-03-04T03:54:36.151Z,21.38
2019-03-04T03:59:40.259Z,21.37
2019-03-04T04:04:44.386Z,21.34
2019-03-04T04:09:48.511Z,21.34
2019-03-04T04:14:52.539Z,21.30
2019-03-04T04:19:56.586Z,21.28
2019-03-04T04:25:00.684Z,21.27
2019-03-04T04:30:05.835Z,21.25
2019-03-04T04:35:10.035Z,21.26
2019-03-04T04:40:14.260Z,21.25
2019-03-04T04:45:18.388Z,21.18
2019-03-04T04:50:22.727Z,21.21
2019-03-04T04:55:26.924Z,21.08
2019-03-04T05:00:31.430Z,21.12
2019-03-04T05:05:35.572Z,21.10
2019-03-04T05:10:39.739Z,21.00
2019-03-04T05:15:43.945Z,21.01
2019-03-04T05:20:48.137Z,21.07
2019-03-04T05:25:52.260Z,21.06
2019-03-04T05:30:56.466Z,21.04
2019-03-04T05:36:00.547Z,21.04
2019-03-04T05:41:04.732Z,21.02
2019-03-04T05:46:08.895Z,20.94
2019-03-04T05:51:13.188Z,20.99
2019-03-04T05:56:17.384Z,20.99
2019-03-04T06:01:27.027Z,20.99
2019-03-04T06:06:48.862Z,20.97
2019-03-04T06:11:53.047Z,20.88
2019-03-04T06:16:57.320Z,20.88
2019-03-04T06:22:01.570Z,20.94
2019-03-04T06:27:05.850Z,20.93
2019-03-04T06:32:09.967Z,20.92
2019-03-04T06:37:14.156Z,20.92
2019-03-04T06:42:18.388Z,20.82
2019-03-04T06:47:22.647Z,20.89
2019-03-04T06:52:27.268Z,20.79
2019-03-04T06:57:44.241Z,20.79
2019-03-04T07:02:48.413Z,20.86
2019-03-04T07:07:52.709Z,20.86
2019-03-04T07:12:56.911Z,20.86
2019-03-04T07:18:01.091Z,20.84
2019-03-04T07:23:05.389Z,20.84
2019-03-04T07:28:09.615Z,20.83
2019-03-04T07:33:14.029Z,20.76
2019-03-04T07:38:51.792Z,20.80
2019-03-04T07:43:55.929Z,17.80
2019-03-04T07:49:00.157Z,16.82
2019-03-04T07:54:04.646Z,16.56
2019-03-04T07:59:08.906Z,16.11
2019-03-04T08:04:12.914Z,16.35
2019-03-04T08:09:22.194Z,18.80
2019-03-04T08:14:26.293Z,19.90
2019-03-04T08:19:30.437Z,20.35
2019-03-04T08:24:34.455Z,20.51
2019-03-04T08:29:38.542Z,20.60
2019-03-04T08:34:42.632Z,20.70
2019-03-04T08:39:46.717Z,20.67
2019-03-04T08:44:50.736Z,20.67
2019-03-04T08:49:54.767Z,20.69
2019-03-04T08:54:59.396Z,20.69
2019-03-04T09:00:03.894Z,20.67
2019-03-04T09:05:08.711Z,20.68
2019-03-04T09:10:16.851Z,20.67
2019-03-04T09:15:21.082Z,20.68
2019-03-04T09:20:25.597Z,20.64
2019-03-04T09:25:34.710Z,20.66
2019-03-04T09:30:39.147Z,20.70
2019-03-04T09:35:57.121Z,20.68
2019-03-04T09:41:01.192Z,20.68
2019-03-04T09:46:05.430Z,20.60
2019-03-04T09:51:09.806Z,20.62
2019-03-04T09:56:14.405Z,20.62
2019-03-04T10:01:28.803Z,20.67
2019-03-04T10:07:10.601Z,20.68
2019-03-04T10:12:36.679Z,20.68
2019-03-04T10:18:18.800Z,20.73
2019-03-04T10:24:13.175Z,20.71
2019-03-04T10:30:07.589Z,20.64
2019-03-04T10:36:01.708Z,20.64
2019-03-04T10:41:30.222Z,20.72
2019-03-04T10:46:55.993Z,20.21
2019-03-04T10:52:00.210Z,20.28
2019-03-04T10:57:04.414Z,20.28
2019-03-04T11:02:08.590Z,20.60
2019-03-04T11:07:54.611Z,20.66
2019-03-04T11:23:59.473Z,20.75
2019-03-04T11:29:04.526Z,20.76
2019-03-04T11:34:08.759Z,20.66
2019-03-04T11:39:52.374Z,20.66
2019-03-04T11:44:56.867Z,20.62
2019-03-04T11:50:01.458Z,20.66
2019-03-04T11:55:07.894Z,20.66
2019-03-04T12:00:15.730Z,20.67
2019-03-04T12:05:20.193Z,20.75
2019-03-04T12:10:24.568Z,20.78
2019-03-04T12:15:29.126Z,20.80
2019-03-04T12:20:33.870Z,20.80
2019-03-04T12:25:50.168Z,20.78
2019-03-04T12:30:55.684Z,20.78
2019-03-04T12:36:00.228Z,20.78
2019-03-04T12:41:04.834Z,20.71
2019-03-04T12:46:09.226Z,20.77
2019-03-04T12:51:22.757Z,20.75
2019-03-04T12:56:19.915Z,20.75
2019-03-04T13:01:24.509Z,20.78
2019-03-04T13:06:29.029Z,20.80
2019-03-04T13:11:33.543Z,20.81
2019-03-04T13:16:38.040Z,20.82
2019-03-04T13:21:42.569Z,20.82
2019-03-04T13:26:47.096Z,20.75
2019-03-04T13:31:51.569Z,20.84
2019-03-04T13:36:56.190Z,20.84
2019-03-04T13:42:00.637Z,20.86
2019-03-04T13:47:05.223Z,20.85
2019-03-04T13:52:09.662Z,20.85
2019-03-04T13:57:14.171Z,20.88
2019-03-04T14:02:18.719Z,20.88
2019-03-04T14:07:23.170Z,20.88
2019-03-04T14:12:28.935Z,20.80
2019-03-04T14:17:33.218Z,20.77
2019-03-04T14:22:40.540Z,20.77
2019-03-04T14:28:05.744Z,20.77
2019-03-04T14:38:34.821Z,21.01
2019-03-04T14:49:15.447Z,21.03
2019-03-04T14:54:22.009Z,21.03
2019-03-04T14:59:29.578Z,20.97
2019-03-04T15:31:00.297Z,21.32
2019-03-04T15:36:09.146Z,21.35
2019-03-04T15:41:14.931Z,21.35
2019-03-04T15:46:24.313Z,21.39
2019-03-04T15:57:58.642Z,21.41
2019-03-04T16:03:29.976Z,21.42
2019-03-04T16:08:49.803Z,21.45
2019-03-04T16:14:00.506Z,21.47
2019-03-04T16:19:31.043Z,21.47
2019-03-04T16:31:12.303Z,21.52
2019-03-04T16:42:56.222Z,21.52
2019-03-04T16:48:00.537Z,21.41
2019-03-04T16:53:04.887Z,21.51
2019-03-04T16:58:08.991Z,21.51
2019-03-04T17:03:13.223Z,21.41
2019-03-04T17:08:17.509Z,21.62
2019-03-04T17:13:21.741Z,22.00
2019-03-04T17:18:25.917Z,22.20
2019-03-04T17:23:30.274Z,22.41
2019-03-04T17:28:34.639Z,22.52
2019-03-04T17:33:38.990Z,22.50
2019-03-04T17:38:43.184Z,22.49
2019-03-04T17:43:47.471Z,22.35
2019-03-04T17:48:51.720Z,22.53
2019-03-04T17:53:55.828Z,22.53
2019-03-04T17:59:00.115Z,22.46
2019-03-04T18:04:04.349Z,22.46
2019-03-04T18:09:08.617Z,22.46
2019-03-04T18:14:12.907Z,22.46
2019-03-04T18:19:16.984Z,22.53
2019-03-04T18:24:21.278Z,22.47
2019-03-04T18:35:47.981Z,22.49
2019-03-04T18:41:09.599Z,22.53
2019-03-04T18:47:05.728Z,22.47
2019-03-04T18:52:10.109Z,22.55
2019-03-04T18:57:14.437Z,22.41
2019-03-04T19:02:19.034Z,22.41
2019-03-04T19:07:23.402Z,22.29
2019-03-04T19:12:27.881Z,22.34
2019-03-04T19:17:33.724Z,22.31
2019-03-04T19:22:38.194Z,22.47
2019-03-04T19:27:42.329Z,22.41
2019-03-04T19:32:46.739Z,22.47
2019-03-04T19:37:50.910Z,22.43
2019-03-04T19:42:55.013Z,22.39
2019-03-04T19:47:59.225Z,22.31
2019-03-04T19:53:03.370Z,22.17
2019-03-04T19:58:07.507Z,22.17
2019-03-04T20:03:11.807Z,22.31
2019-03-04T20:08:17.473Z,22.27
2019-03-04T20:13:21.638Z,22.31
2019-03-04T20:18:25.797Z,22.32
2019-03-04T20:23:29.958Z,22.24
2019-03-04T20:28:34.145Z,22.21
2019-03-04T20:33:40.742Z,22.14
2019-03-04T20:38:46.984Z,22.09
2019-03-04T20:43:51.031Z,22.04
2019-03-04T20:48:55.452Z,22.04
2019-03-04T20:53:59.517Z,21.93
2019-03-04T20:59:03.647Z,21.88
2019-03-04T21:04:07.927Z,21.86
2019-03-04T21:09:14.329Z,21.86
2019-03-04T21:14:18.702Z,21.86
2019-03-04T21:19:22.891Z,21.87
2019-03-04T21:24:27.069Z,21.87
2019-03-04T21:30:03.927Z,21.88
2019-03-04T21:35:55.200Z,21.85
2019-03-04T21:41:27.780Z,21.74
2019-03-04T21:47:09.064Z,21.85
2019-03-04T21:52:31.443Z,21.85
2019-03-04T21:57:39.529Z,21.83
2019-03-04T22:02:54.424Z,21.86
2019-03-04T22:07:58.535Z,21.84
2019-03-04T22:13:03.030Z,21.80
2019-03-04T22:18:08.123Z,21.80
2019-03-04T22:23:12.583Z,21.80
2019-03-04T22:28:16.770Z,21.82
2019-03-04T22:33:20.851Z,21.84
2019-03-04T22:38:25.102Z,21.80
2019-03-04T22:43:29.241Z,21.80
2019-03-04T22:48:33.326Z,21.82
2019-03-04T22:53:37.505Z,21.82
2019-03-04T22:58:41.610Z,21.81
2019-03-04T23:03:46.330Z,21.81
2019-03-04T23:08:50.515Z,21.80
2019-03-04T23:14:13.843Z,21.80
2019-03-04T23:19:18.020Z,21.78
2019-03-04T23:24:22.126Z,21.79
2019-03-04T23:29:26.226Z,21.80
2019-03-04T23:34:30.428Z,21.79
2019-03-04T23:39:34.515Z,21.80
2019-03-04T23:44:38.748Z,21.81
2019-03-04T23:49:43.025Z,21.81
2019-03-04T23:54:47.295Z,21.78
2019-03-04T23:59:51.398Z,21.78
